Time;durP1;ratioP1;P1;durP2;ratioP2;P2;SDS_P1;SDS_P2;PMS_P1;PMS_P2;Temp;Humidity;BMP_temperature;BMP_pressure;BME280_temperature;BME280_humidity;BME280_pressure;Samples;Min_cycle;Max_cycle;Signal;HPM_P1;HPM_P2
2022/10/22 00:01:53;;;;;;;8.38;7.57;;;;;;;;;;5120962;28;20268;-67
2022/10/22 00:04:21;;;;;;;8.60;7.80;;;;;;;;;;5120535;28;20590;-67
2022/10/22 00:06:49;;;;;;;8.88;8.05;;;;;;;;;;5120969;28;20213;-67
2022/10/22 00:09:16;;;;;;;9.45;7.82;;;;;;;;;;5120984;28;20272;-67
2022/10/22 00:11:44;;;;;;;8.35;7.55;;;;;;;;;;5121024;28;20612;-66
2022/10/22 00:14:12;;;;;;;8.15;7.45;;;;;;;;;;5120907;28;20579;-67
2022/10/22 00:16:40;;;;;;;8.85;8.05;;;;;;;;;;5120838;28;20290;-66
2022/10/22 00:19:12;;;;;;;7.60;6.93;;;;;;;;;;5120870;28;20210;-67
2022/10/22 00:21:39;;;;;;;8.10;7.40;;;;;;;;;;5119266;28;20239;-67
2022/10/22 00:24:08;;;;;;;7.65;6.95;;;;;;;;;;5120150;28;20234;-66
2022/10/22 00:26:35;;;;;;;7.97;7.25;;;;;;;;;;5120713;28;20209;-66
2022/10/22 00:29:03;;;;;;;8.00;7.30;;;;;;;;;;5139796;27;20244;-66
2022/10/22 00:31:32;;;;;;;7.95;7.25;;;;;;;;;;5141453;27;20206;-67
2022/10/22 00:33:59;;;;;;;7.80;7.10;;;;;;;;;;5141015;27;20292;-66
2022/10/22 00:36:29;;;;;;;8.05;7.35;;;;;;;;;;5140367;27;20267;-66
2022/10/22 00:38:57;;;;;;;7.90;7.20;;;;;;;;;;5140991;27;20203;-67
2022/10/22 00:41:25;;;;;;;7.30;6.70;;;;;;;;;;5140927;27;20522;-67
2022/10/22 00:44:00;;;;;;;7.88;7.18;;;;;;;;;;5140897;27;20286;-67
2022/10/22 00:46:28;;;;;;;7.43;6.72;;;;;;;;;;5133173;27;20210;-68
2022/10/22 00:48:56;;;;;;;7.03;6.43;;;;;;;;;;5120313;28;20605;-67
2022/10/22 00:51:26;;;;;;;7.40;6.72;;;;;;;;;;5120347;28;20203;-66
2022/10/22 00:54:01;;;;;;;7.60;6.90;;;;;;;;;;5120390;28;20260;-67
2022/10/22 00:56:29;;;;;;;7.60;6.90;;;;;;;;;;5120370;28;20263;-66
2022/10/22 00:58:58;;;;;;;7.47;6.78;;;;;;;;;;5120142;28;20203;-67
2022/10/22 01:01:27;;;;;;;7.45;6.82;;;;;;;;;;5120042;28;20202;-67
2022/10/22 01:03:56;;;;;;;7.13;6.53;;;;;;;;;;5119816;28;20231;-67
2022/10/22 01:06:26;;;;;;;7.32;6.63;;;;;;;;;;5119665;28;20202;-66
2022/10/22 01:09:01;;;;;;;7.10;6.50;;;;;;;;;;5119705;28;20575;-67
2022/10/22 01:11:34;;;;;;;7.10;6.40;;;;;;;;;;5119601;28;20212;-67
2022/10/22 01:14:03;;;;;;;7.07;6.47;;;;;;;;;;5128462;27;20448;-67
2022/10/22 01:16:36;;;;;;;7.05;6.45;;;;;;;;;;5140511;27;20263;-67
2022/10/22 01:19:11;;;;;;;7.32;6.72;;;;;;;;;;5140183;27;20202;-67
2022/10/22 01:21:43;;;;;;;7.32;6.72;;;;;;;;;;5140732;27;20350;-67
2022/10/22 01:24:24;;;;;;;6.35;5.85;;;;;;;;;;5140772;27;20662;-68
2022/10/22 01:26:58;;;;;;;6.30;5.80;;;;;;;;;;5139988;27;20566;-67
2022/10/22 01:29:30;;;;;;;6.55;6.00;;;;;;;;;;5139949;27;20211;-67
2022/10/22 01:32:00;;;;;;;6.60;6.05;;;;;;;;;;5139970;27;20206;-67
2022/10/22 01:34:29;;;;;;;7.28;6.68;;;;;;;;;;5139983;27;20477;-67
2022/10/22 01:36:57;;;;;;;6.50;5.90;;;;;;;;;;5138336;27;20203;-67
2022/10/22 01:39:25;;;;;;;7.22;6.63;;;;;;;;;;5137978;27;20202;-67
2022/10/22 01:41:55;;;;;;;6.90;6.30;;;;;;;;;;5119750;28;20249;-67
2022/10/22 01:44:26;;;;;;;6.47;5.88;;;;;;;;;;5119102;28;20265;-67
2022/10/22 01:47:08;;;;;;;6.80;6.20;;;;;;;;;;5120212;27;20195;-67
2022/10/22 01:49:42;;;;;;;6.63;6.13;;;;;;;;;;5119701;28;20462;-68
2022/10/22 01:52:13;;;;;;;6.00;5.50;;;;;;;;;;5119148;28;20210;-66
2022/10/22 01:54:45;;;;;;;6.15;5.65;;;;;;;;;;5119104;28;20206;-68
2022/10/22 01:57:20;;;;;;;6.10;5.60;;;;;;;;;;5118890;28;20497;-67
2022/10/22 01:59:54;;;;;;;6.60;6.10;;;;;;;;;;5119147;28;20210;-68
2022/10/22 02:02:30;;;;;;;6.18;5.68;;;;;;;;;;5118816;28;20277;-67
2022/10/22 02:05:00;;;;;;;6.70;6.10;;;;;;;;;;5118047;28;20328;-69
2022/10/22 02:07:29;;;;;;;5.90;5.40;;;;;;;;;;5124935;27;20284;-66
2022/10/22 02:09:57;;;;;;;6.18;5.68;;;;;;;;;;5128069;27;20226;-67
2022/10/22 02:12:28;;;;;;;6.00;5.50;;;;;;;;;;5118641;28;20210;-66
2022/10/22 02:14:56;;;;;;;6.30;5.80;;;;;;;;;;5118413;28;20293;-67
2022/10/22 02:17:26;;;;;;;5.57;5.18;;;;;;;;;;5118796;28;20207;-66
2022/10/22 02:19:57;;;;;;;6.30;5.80;;;;;;;;;;5118617;28;20294;-67
2022/10/22 02:22:26;;;;;;;6.30;5.80;;;;;;;;;;5118776;28;20211;-66
2022/10/22 02:24:53;;;;;;;5.80;5.30;;;;;;;;;;5118573;28;20250;-66
2022/10/22 02:27:23;;;;;;;5.80;5.30;;;;;;;;;;5118118;28;20246;-66
2022/10/22 02:29:53;;;;;;;6.18;5.57;;;;;;;;;;5118546;28;20253;-66
2022/10/22 02:32:22;;;;;;;5.88;5.38;;;;;;;;;;5118521;28;20494;-66
2022/10/22 02:34:51;;;;;;;5.90;5.40;;;;;;;;;;5118427;28;20245;-67
2022/10/22 02:37:21;;;;;;;5.88;5.38;;;;;;;;;;5118944;28;20590;-67
2022/10/22 02:39:49;;;;;;;5.95;5.45;;;;;;;;;;5118609;28;20563;-67
2022/10/22 02:42:17;;;;;;;6.03;5.53;;;;;;;;;;5118300;28;20194;-67
2022/10/22 02:44:45;;;;;;;5.88;5.30;;;;;;;;;;5118181;28;20676;-67
2022/10/22 02:47:13;;;;;;;5.88;5.38;;;;;;;;;;5117693;28;20210;-67
2022/10/22 02:49:41;;;;;;;5.43;4.93;;;;;;;;;;5118207;28;20203;-67
2022/10/22 02:52:09;;;;;;;5.38;4.97;;;;;;;;;;5117958;28;20256;-67
2022/10/22 02:54:38;;;;;;;5.28;4.88;;;;;;;;;;5118174;28;20199;-68
2022/10/22 02:57:06;;;;;;;5.47;5.07;;;;;;;;;;5118561;28;20247;-67
2022/10/22 02:59:34;;;;;;;5.30;4.90;;;;;;;;;;5118282;28;20282;-67
2022/10/22 03:02:02;;;;;;;5.38;4.97;;;;;;;;;;5117569;28;20199;-67
2022/10/22 03:04:29;;;;;;;5.40;4.90;;;;;;;;;;5117532;28;20233;-67
2022/10/22 03:06:57;;;;;;;5.63;5.13;;;;;;;;;;5118392;28;20546;-66
2022/10/22 03:09:25;;;;;;;5.72;5.22;;;;;;;;;;5118077;28;20264;-67
2022/10/22 03:11:55;;;;;;;5.57;5.10;;;;;;;;;;5118093;28;20568;-67
2022/10/22 03:14:22;;;;;;;5.85;5.35;;;;;;;;;;5118172;28;20268;-67
2022/10/22 03:16:50;;;;;;;5.43;5.03;;;;;;;;;;5117911;28;20238;-67
2022/10/22 03:19:18;;;;;;;5.03;4.63;;;;;;;;;;5118122;28;20258;-67
2022/10/22 03:21:49;;;;;;;5.25;4.85;;;;;;;;;;5118152;28;20203;-67
2022/10/22 03:24:18;;;;;;;5.22;4.82;;;;;;;;;;5117909;28;20235;-67
2022/10/22 03:26:46;;;;;;;5.25;4.85;;;;;;;;;;5117853;28;20543;-68
2022/10/22 03:29:16;;;;;;;5.00;4.60;;;;;;;;;;5138355;28;20203;-67
2022/10/22 03:31:44;;;;;;;5.15;4.75;;;;;;;;;;5138533;28;20202;-67
2022/10/22 03:34:12;;;;;;;5.15;4.75;;;;;;;;;;5138582;28;20211;-68
2022/10/22 03:36:40;;;;;;;5.13;4.72;;;;;;;;;;5138316;28;20203;-67
2022/10/22 03:39:08;;;;;;;5.25;4.85;;;;;;;;;;5138476;28;20651;-67
2022/10/22 03:41:37;;;;;;;5.13;4.72;;;;;;;;;;5138330;28;20210;-67
2022/10/22 03:44:05;;;;;;;5.07;4.68;;;;;;;;;;5138051;28;20622;-69
2022/10/22 03:46:35;;;;;;;5.38;4.88;;;;;;;;;;5138179;28;20252;-67
2022/10/22 03:49:03;;;;;;;5.03;4.63;;;;;;;;;;5137965;28;20229;-67
2022/10/22 03:51:31;;;;;;;5.32;4.93;;;;;;;;;;5138312;28;20297;-66
2022/10/22 03:53:58;;;;;;;4.68;4.30;;;;;;;;;;5136567;28;20292;-67
2022/10/22 03:56:26;;;;;;;4.68;4.38;;;;;;;;;;5123428;27;20198;-67
2022/10/22 03:58:56;;;;;;;5.28;4.80;;;;;;;;;;5138200;27;20198;-67
2022/10/22 04:01:24;;;;;;;4.82;4.43;;;;;;;;;;5141500;27;20214;-66
2022/10/22 04:03:53;;;;;;;4.63;4.32;;;;;;;;;;5141711;27;20237;-67
2022/10/22 04:06:21;;;;;;;4.50;4.15;;;;;;;;;;5141273;27;20305;-67
2022/10/22 04:08:48;;;;;;;4.80;4.40;;;;;;;;;;5141602;27;20228;-67
2022/10/22 04:11:17;;;;;;;4.97;4.57;;;;;;;;;;5141524;27;20597;-67
2022/10/22 04:13:45;;;;;;;4.60;4.20;;;;;;;;;;5141643;27;20629;-67
2022/10/22 04:16:13;;;;;;;4.75;4.35;;;;;;;;;;5141623;27;20807;-67
2022/10/22 04:18:41;;;;;;;4.30;4.00;;;;;;;;;;5140913;27;20536;-67
2022/10/22 04:21:10;;;;;;;4.15;3.85;;;;;;;;;;5139994;27;20289;-67
2022/10/22 04:23:38;;;;;;;4.75;4.35;;;;;;;;;;5139926;27;20229;-67
2022/10/22 04:26:06;;;;;;;4.28;3.97;;;;;;;;;;5140207;27;20567;-67
2022/10/22 04:28:34;;;;;;;4.20;3.90;;;;;;;;;;5140056;27;20325;-67
2022/10/22 04:31:02;;;;;;;4.78;4.38;;;;;;;;;;5140560;27;20241;-68
2022/10/22 04:33:29;;;;;;;4.10;3.80;;;;;;;;;;5140676;27;20301;-67
2022/10/22 04:35:56;;;;;;;4.25;3.95;;;;;;;;;;5140488;27;20862;-67
2022/10/22 04:38:25;;;;;;;3.90;3.60;;;;;;;;;;5140377;27;20293;-67
2022/10/22 04:40:53;;;;;;;4.35;4.05;;;;;;;;;;5139919;27;20363;-67
2022/10/22 04:43:20;;;;;;;4.07;3.78;;;;;;;;;;5140400;27;20293;-67
2022/10/22 04:45:48;;;;;;;4.25;3.90;;;;;;;;;;5139812;27;20262;-67
2022/10/22 04:48:15;;;;;;;4.15;3.85;;;;;;;;;;5133361;27;20276;-67
2022/10/22 04:50:43;;;;;;;4.32;4.03;;;;;;;;;;5136699;27;20210;-67
2022/10/22 04:53:10;;;;;;;4.30;4.00;;;;;;;;;;5140322;27;20598;-67
2022/10/22 04:55:39;;;;;;;3.95;3.65;;;;;;;;;;5140411;27;20234;-67
2022/10/22 04:58:07;;;;;;;4.45;4.05;;;;;;;;;;5139786;27;20202;-67
2022/10/22 05:00:34;;;;;;;4.20;3.90;;;;;;;;;;5139826;27;20302;-67
2022/10/22 05:03:01;;;;;;;4.40;4.10;;;;;;;;;;5139432;27;20202;-67
2022/10/22 05:05:29;;;;;;;3.88;3.58;;;;;;;;;;5139843;27;20269;-66
2022/10/22 05:07:56;;;;;;;3.90;3.60;;;;;;;;;;5140018;27;20233;-67
2022/10/22 05:10:24;;;;;;;3.78;3.47;;;;;;;;;;5139587;27;20652;-67
2022/10/22 05:12:53;;;;;;;3.90;3.60;;;;;;;;;;5139265;27;20202;-67
2022/10/22 05:15:20;;;;;;;4.22;3.88;;;;;;;;;;5139098;27;20286;-67
2022/10/22 05:17:48;;;;;;;4.05;3.75;;;;;;;;;;5139483;27;20228;-67
2022/10/22 05:20:15;;;;;;;3.90;3.60;;;;;;;;;;5139492;27;20281;-67
2022/10/22 05:22:42;;;;;;;4.00;3.70;;;;;;;;;;5139790;27;20301;-67
2022/10/22 05:25:11;;;;;;;3.90;3.60;;;;;;;;;;5139230;27;20302;-67
2022/10/22 05:27:38;;;;;;;3.90;3.60;;;;;;;;;;5139465;27;20238;-67
2022/10/22 05:30:08;;;;;;;3.70;3.40;;;;;;;;;;5139782;27;20228;-67
2022/10/22 05:32:35;;;;;;;3.80;3.50;;;;;;;;;;5139339;27;20285;-67
2022/10/22 05:35:03;;;;;;;4.10;3.80;;;;;;;;;;5139147;27;20240;-67
2022/10/22 05:37:30;;;;;;;4.03;3.72;;;;;;;;;;5139478;27;20527;-67
2022/10/22 05:39:58;;;;;;;3.80;3.50;;;;;;;;;;5129591;27;20256;-67
2022/10/22 05:42:26;;;;;;;3.88;3.58;;;;;;;;;;5132160;27;20199;-66
2022/10/22 05:44:53;;;;;;;3.80;3.50;;;;;;;;;;5138994;27;20333;-67
2022/10/22 05:47:22;;;;;;;3.85;3.55;;;;;;;;;;5139454;27;20211;-67
2022/10/22 05:49:49;;;;;;;3.95;3.65;;;;;;;;;;5139012;27;20602;-67
2022/10/22 05:52:17;;;;;;;3.58;3.28;;;;;;;;;;5138726;27;20284;-67
2022/10/22 05:54:45;;;;;;;3.80;3.50;;;;;;;;;;5138252;27;20225;-67
2022/10/22 05:57:12;;;;;;;3.80;3.50;;;;;;;;;;5138961;27;20198;-68
2022/10/22 05:59:40;;;;;;;3.55;3.25;;;;;;;;;;5138510;27;20239;-67
2022/10/22 06:02:07;;;;;;;3.83;3.53;;;;;;;;;;5130093;27;20343;-67
2022/10/22 06:04:36;;;;;;;3.97;3.67;;;;;;;;;;5133804;27;20237;-67
2022/10/22 06:07:03;;;;;;;3.50;3.30;;;;;;;;;;5138712;27;20297;-67
2022/10/22 06:09:33;;;;;;;3.25;3.05;;;;;;;;;;5138514;27;20247;-67
2022/10/22 06:12:00;;;;;;;3.75;3.45;;;;;;;;;;5138734;27;20208;-67
2022/10/22 06:14:31;;;;;;;3.78;3.53;;;;;;;;;;5138957;27;20266;-67
2022/10/22 06:16:59;;;;;;;3.35;3.15;;;;;;;;;;5138217;27;20307;-68
2022/10/22 06:19:28;;;;;;;3.85;3.55;;;;;;;;;;5138347;27;20661;-66
2022/10/22 06:21:57;;;;;;;3.83;3.22;;;;;;;;;;5137969;27;20314;-67
2022/10/22 06:24:24;;;;;;;3.47;3.28;;;;;;;;;;5138402;27;20301;-67
2022/10/22 06:26:52;;;;;;;3.58;3.38;;;;;;;;;;5138727;27;20201;-67
2022/10/22 06:29:20;;;;;;;3.17;2.97;;;;;;;;;;5137660;27;20213;-67
2022/10/22 06:31:47;;;;;;;3.33;3.13;;;;;;;;;;5137700;27;20225;-67
2022/10/22 06:34:17;;;;;;;3.30;3.10;;;;;;;;;;5138516;27;20593;-67
2022/10/22 06:36:45;;;;;;;3.20;3.00;;;;;;;;;;5137718;27;20198;-67
2022/10/22 06:39:15;;;;;;;3.20;3.00;;;;;;;;;;5134400;27;20274;-67
2022/10/22 06:41:43;;;;;;;3.00;2.80;;;;;;;;;;5125801;27;20285;-67
2022/10/22 06:44:13;;;;;;;3.33;3.13;;;;;;;;;;5138006;27;20283;-66
2022/10/22 06:46:41;;;;;;;3.40;3.20;;;;;;;;;;5137404;27;20226;-67
2022/10/22 06:49:08;;;;;;;3.40;3.20;;;;;;;;;;5137691;27;20206;-67
2022/10/22 06:51:35;;;;;;;3.33;3.13;;;;;;;;;;5138041;27;20655;-66
2022/10/22 06:54:03;;;;;;;3.13;2.92;;;;;;;;;;5137602;27;20198;-66
2022/10/22 06:56:32;;;;;;;4.15;3.08;;;;;;;;;;5136704;27;20259;-66
2022/10/22 06:58:59;;;;;;;3.03;2.72;;;;;;;;;;5137780;27;20642;-66
2022/10/22 07:01:28;;;;;;;2.90;2.70;;;;;;;;;;5138194;27;20293;-66
2022/10/22 07:03:56;;;;;;;2.88;2.67;;;;;;;;;;5138151;27;20202;-66
2022/10/22 07:06:24;;;;;;;3.10;2.72;;;;;;;;;;5137073;28;20234;-66
2022/10/22 07:08:52;;;;;;;3.00;2.80;;;;;;;;;;5137651;28;20198;-67
2022/10/22 07:11:20;;;;;;;3.10;2.90;;;;;;;;;;5138106;28;20317;-66
2022/10/22 07:13:49;;;;;;;2.92;2.72;;;;;;;;;;5137911;28;20209;-66
2022/10/22 07:16:17;;;;;;;2.90;2.70;;;;;;;;;;5137025;28;20199;-66
2022/10/22 07:18:45;;;;;;;2.80;2.60;;;;;;;;;;5138001;28;20226;-67
2022/10/22 07:21:13;;;;;;;2.83;2.63;;;;;;;;;;5137007;28;20250;-67
2022/10/22 07:23:41;;;;;;;2.65;2.45;;;;;;;;;;5137446;28;20639;-67
2022/10/22 07:26:09;;;;;;;2.83;2.63;;;;;;;;;;5137447;28;20234;-67
2022/10/22 07:28:38;;;;;;;2.70;2.50;;;;;;;;;;5137047;28;20337;-68
2022/10/22 07:31:08;;;;;;;2.90;2.47;;;;;;;;;;5137554;28;20233;-66
2022/10/22 07:33:35;;;;;;;2.35;2.20;;;;;;;;;;5126619;28;20297;-66
2022/10/22 07:36:04;;;;;;;2.70;2.50;;;;;;;;;;5139433;27;20797;-67
2022/10/22 07:38:32;;;;;;;2.30;2.20;;;;;;;;;;5140108;27;20808;-66
2022/10/22 07:40:59;;;;;;;2.45;2.30;;;;;;;;;;5140979;27;20559;-66
2022/10/22 07:43:27;;;;;;;2.60;2.40;;;;;;;;;;5141127;27;20241;-68
2022/10/22 07:45:55;;;;;;;2.55;2.42;;;;;;;;;;5140908;27;20611;-69
2022/10/22 07:48:24;;;;;;;2.45;2.25;;;;;;;;;;5141093;27;20574;-66
2022/10/22 07:50:52;;;;;;;2.10;2.00;;;;;;;;;;5140993;27;20296;-67
2022/10/22 07:53:21;;;;;;;2.50;2.30;;;;;;;;;;5140575;27;20296;-66
2022/10/22 07:55:49;;;;;;;2.10;2.00;;;;;;;;;;5140689;27;20499;-67
2022/10/22 07:58:16;;;;;;;2.10;2.00;;;;;;;;;;5140189;27;20202;-67
2022/10/22 08:00:43;;;;;;;2.47;2.30;;;;;;;;;;5137112;27;20565;-67
2022/10/22 08:03:11;;;;;;;2.08;1.98;;;;;;;;;;5127345;27;20209;-67
2022/10/22 08:05:42;;;;;;;2.00;1.90;;;;;;;;;;5140572;27;20314;-68
2022/10/22 08:08:10;;;;;;;2.10;2.00;;;;;;;;;;5140552;27;20198;-67
2022/10/22 08:10:37;;;;;;;2.17;2.03;;;;;;;;;;5140145;27;20256;-66
2022/10/22 08:13:05;;;;;;;2.10;2.00;;;;;;;;;;5140393;27;20255;-67
2022/10/22 08:15:32;;;;;;;2.25;2.15;;;;;;;;;;5140015;27;20330;-67
2022/10/22 08:18:00;;;;;;;1.85;1.75;;;;;;;;;;5139799;27;20202;-67
2022/10/22 08:20:27;;;;;;;2.00;1.90;;;;;;;;;;5140058;27;20547;-67
2022/10/22 08:22:56;;;;;;;2.00;1.90;;;;;;;;;;5139897;27;20293;-67
2022/10/22 08:25:24;;;;;;;1.90;1.80;;;;;;;;;;5139713;27;20226;-67
2022/10/22 08:27:52;;;;;;;2.00;1.90;;;;;;;;;;5138295;27;20265;-68
2022/10/22 08:30:19;;;;;;;1.83;1.73;;;;;;;;;;5139368;27;20644;-67
2022/10/22 08:32:47;;;;;;;1.80;1.70;;;;;;;;;;5139377;27;20263;-67
2022/10/22 08:35:15;;;;;;;1.80;1.70;;;;;;;;;;5139285;27;20316;-67
2022/10/22 08:37:42;;;;;;;1.77;1.67;;;;;;;;;;5139032;27;20241;-67
2022/10/22 08:40:13;;;;;;;2.08;1.98;;;;;;;;;;5139672;27;20242;-67
2022/10/22 08:42:59;;;;;;;1.90;1.80;;;;;;;;;;5138868;27;20203;-66
2022/10/22 08:45:30;;;;;;;3.63;1.70;;;;;;;;;;5139088;27;20321;-67
2022/10/22 08:48:05;;;;;;;6.82;2.05;;;;;;;;;;5139537;27;20294;-68
2022/10/22 08:50:35;;;;;;;3.35;1.67;;;;;;;;;;5137856;27;20673;-66
2022/10/22 08:53:06;;;;;;;2.30;1.70;;;;;;;;;;5129142;27;20243;-66
2022/10/22 08:55:36;;;;;;;3.13;1.98;;;;;;;;;;5118673;28;20207;-66
2022/10/22 08:58:14;;;;;;;2.40;1.73;;;;;;;;;;5118030;28;20202;-67
2022/10/22 09:00:45;;;;;;;2.63;1.63;;;;;;;;;;5118675;28;20210;-66
2022/10/22 09:03:26;;;;;;;3.90;1.63;;;;;;;;;;5117789;28;20239;-66
2022/10/22 09:05:57;;;;;;;7.00;2.17;;;;;;;;;;5117506;28;20222;-66
2022/10/22 09:08:24;;;;;;;4.78;1.65;;;;;;;;;;5118092;28;20314;-67
2022/10/22 09:10:55;;;;;;;2.72;1.58;;;;;;;;;;5118261;28;20203;-66
2022/10/22 09:13:23;;;;;;;3.80;1.55;;;;;;;;;;5118373;28;20199;-66
2022/10/22 09:15:53;;;;;;;5.32;1.95;;;;;;;;;;5117694;28;20199;-67
2022/10/22 09:18:29;;;;;;;4.18;1.70;;;;;;;;;;5117625;28;20237;-66
2022/10/22 09:20:59;;;;;;;7.00;1.80;;;;;;;;;;5116591;28;20285;-66
2022/10/22 09:23:31;;;;;;;4.80;1.65;;;;;;;;;;5116356;28;20293;-66
2022/10/22 09:26:00;;;;;;;4.75;1.75;;;;;;;;;;5117934;28;20266;-67
2022/10/22 09:28:28;;;;;;;3.75;1.50;;;;;;;;;;5131174;27;20299;-67
2022/10/22 09:30:55;;;;;;;2.30;1.42;;;;;;;;;;5136770;27;20904;-67
2022/10/22 09:33:25;;;;;;;3.53;1.45;;;;;;;;;;5137276;27;20237;-66
2022/10/22 09:35:54;;;;;;;1.60;1.50;;;;;;;;;;5137578;27;20263;-67
2022/10/22 09:38:24;;;;;;;6.13;1.80;;;;;;;;;;5137955;27;20297;-67
2022/10/22 09:40:54;;;;;;;2.58;1.33;;;;;;;;;;5137982;27;20293;-66
2022/10/22 09:43:24;;;;;;;2.38;1.40;;;;;;;;;;5137463;27;20202;-66
2022/10/22 09:45:56;;;;;;;2.75;1.55;;;;;;;;;;5134600;27;20238;-67
2022/10/22 09:48:29;;;;;;;2.42;1.63;;;;;;;;;;5116590;28;20217;-65
2022/10/22 09:50:59;;;;;;;3.40;1.40;;;;;;;;;;5116866;28;20203;-66
2022/10/22 09:53:29;;;;;;;1.88;1.45;;;;;;;;;;5117010;28;20286;-66
2022/10/22 09:55:58;;;;;;;2.53;1.50;;;;;;;;;;5116265;28;20282;-66
2022/10/22 09:58:27;;;;;;;3.40;1.40;;;;;;;;;;5115573;28;20561;-66
2022/10/22 10:00:56;;;;;;;3.17;1.35;;;;;;;;;;5116230;28;20245;-67
2022/10/22 10:03:24;;;;;;;2.25;1.23;;;;;;;;;;5116517;28;20203;-66
2022/10/22 10:05:53;;;;;;;1.95;1.30;;;;;;;;;;5116264;28;20521;-66
2022/10/22 10:08:20;;;;;;;1.80;1.50;;;;;;;;;;5117079;28;20234;-66
2022/10/22 10:10:49;;;;;;;1.80;1.42;;;;;;;;;;5116756;28;20255;-68
2022/10/22 10:13:26;;;;;;;2.85;1.20;;;;;;;;;;5116557;28;20226;-66
2022/10/22 10:15:57;;;;;;;2.95;1.30;;;;;;;;;;5136418;27;20244;-67
2022/10/22 10:18:32;;;;;;;3.65;1.30;;;;;;;;;;5136846;27;20468;-67
2022/10/22 10:21:02;;;;;;;4.65;1.25;;;;;;;;;;5136457;27;20201;-65
2022/10/22 10:23:33;;;;;;;3.92;1.40;;;;;;;;;;5136164;27;20242;-67
2022/10/22 10:26:05;;;;;;;4.32;1.40;;;;;;;;;;5116340;28;20578;-67
2022/10/22 10:28:41;;;;;;;6.40;1.42;;;;;;;;;;5123897;27;20309;-68
2022/10/22 10:31:15;;;;;;;2.80;1.20;;;;;;;;;;5136482;27;20789;-67
2022/10/22 10:33:46;;;;;;;5.63;1.30;;;;;;;;;;5136810;27;20209;-68
2022/10/22 10:36:19;;;;;;;5.90;1.55;;;;;;;;;;5136476;27;20292;-68
2022/10/22 10:38:52;;;;;;;5.20;1.60;;;;;;;;;;5136660;27;20216;-67
2022/10/22 10:41:24;;;;;;;3.97;1.23;;;;;;;;;;5135957;27;20293;-67
2022/10/22 10:43:58;;;;;;;3.17;1.23;;;;;;;;;;5135687;27;20301;-68
2022/10/22 10:46:33;;;;;;;2.70;1.30;;;;;;;;;;5135980;27;20317;-68
2022/10/22 10:49:01;;;;;;;3.85;1.00;;;;;;;;;;5135319;28;20574;-68
2022/10/22 10:51:34;;;;;;;4.03;1.20;;;;;;;;;;5136551;28;20237;-68
2022/10/22 10:54:07;;;;;;;3.70;1.30;;;;;;;;;;5135754;28;20299;-67
2022/10/22 10:56:38;;;;;;;3.30;1.10;;;;;;;;;;5136289;28;20309;-67
2022/10/22 10:59:14;;;;;;;2.70;1.00;;;;;;;;;;5136477;28;20202;-68
2022/10/22 11:01:48;;;;;;;1.85;1.10;;;;;;;;;;5135874;28;20568;-68
2022/10/22 11:04:25;;;;;;;1.48;1.02;;;;;;;;;;5135981;28;20245;-67
2022/10/22 11:06:55;;;;;;;2.35;1.10;;;;;;;;;;5133304;28;20838;-67
2022/10/22 11:09:25;;;;;;;1.58;1.05;;;;;;;;;;5132511;27;20262;-67
2022/10/22 11:11:54;;;;;;;2.08;0.90;;;;;;;;;;5140278;27;20290;-67
2022/10/22 11:14:23;;;;;;;1.58;0.95;;;;;;;;;;5140118;27;20300;-67
2022/10/22 11:16:54;;;;;;;4.82;1.30;;;;;;;;;;5140573;27;20305;-67
2022/10/22 11:19:26;;;;;;;2.10;1.00;;;;;;;;;;5139169;27;20297;-68
2022/10/22 11:21:58;;;;;;;3.83;1.00;;;;;;;;;;5140451;27;20238;-68
2022/10/22 11:24:27;;;;;;;3.33;1.20;;;;;;;;;;5139940;27;20297;-68
2022/10/22 11:26:56;;;;;;;4.95;1.40;;;;;;;;;;5139880;27;20238;-68
2022/10/22 11:29:25;;;;;;;2.97;0.95;;;;;;;;;;5140378;27;20206;-67
2022/10/22 11:31:54;;;;;;;2.33;0.90;;;;;;;;;;5140032;27;20384;-67
2022/10/22 11:34:24;;;;;;;1.60;1.10;;;;;;;;;;5139485;27;20206;-68
2022/10/22 11:36:52;;;;;;;2.70;1.15;;;;;;;;;;5138437;27;20216;-67
2022/10/22 11:39:39;;;;;;;3.05;1.08;;;;;;;;;;5139311;27;20237;-68
2022/10/22 11:42:07;;;;;;;1.10;0.95;;;;;;;;;;5138591;27;20297;-68
2022/10/22 11:44:46;;;;;;;2.08;1.00;;;;;;;;;;5138583;27;20230;-68
2022/10/22 11:47:19;;;;;;;1.45;0.93;;;;;;;;;;5138992;27;20256;-68
2022/10/22 11:49:55;;;;;;;1.30;1.10;;;;;;;;;;5139506;27;20708;-68
2022/10/22 11:52:24;;;;;;;1.15;0.90;;;;;;;;;;5139376;27;20209;-68
2022/10/22 11:54:55;;;;;;;2.45;1.15;;;;;;;;;;5138702;27;20718;-67
2022/10/22 11:57:26;;;;;;;2.88;0.93;;;;;;;;;;5139791;27;20703;-68
2022/10/22 11:59:54;;;;;;;1.80;1.15;;;;;;;;;;5138129;27;20230;-67
2022/10/22 12:02:40;;;;;;;1.13;0.90;;;;;;;;;;5124532;27;20284;-68
2022/10/22 12:05:33;;;;;;;2.17;0.85;;;;;;;;;;5139197;27;20292;-68
2022/10/22 12:08:03;;;;;;;0.98;0.80;;;;;;;;;;5138669;27;20234;-68
2022/10/22 12:10:34;;;;;;;1.02;1.02;;;;;;;;;;5138288;27;20586;-68
2022/10/22 12:13:05;;;;;;;1.63;0.88;;;;;;;;;;5138151;27;20202;-68
2022/10/22 12:15:32;;;;;;;0.80;0.77;;;;;;;;;;5138736;27;20209;-68
2022/10/22 12:18:01;;;;;;;1.05;0.82;;;;;;;;;;5138557;27;20230;-69
2022/10/22 12:20:30;;;;;;;2.30;0.70;;;;;;;;;;5136592;27;20275;-68
2022/10/22 12:22:58;;;;;;;1.00;0.90;;;;;;;;;;5137386;27;20304;-68
2022/10/22 12:25:27;;;;;;;1.10;0.80;;;;;;;;;;5137905;27;20293;-68
2022/10/22 12:27:56;;;;;;;1.10;0.70;;;;;;;;;;5136548;27;20326;-68
2022/10/22 12:30:25;;;;;;;1.05;0.73;;;;;;;;;;5137332;27;20266;-68
2022/10/22 12:32:53;;;;;;;1.10;0.90;;;;;;;;;;5137683;27;20295;-68
2022/10/22 12:35:22;;;;;;;1.00;0.80;;;;;;;;;;5137541;27;20198;-68
2022/10/22 12:37:52;;;;;;;2.10;0.90;;;;;;;;;;5137869;27;20381;-68
2022/10/22 12:40:20;;;;;;;1.08;0.77;;;;;;;;;;5137435;27;20237;-68
2022/10/22 12:42:49;;;;;;;1.13;0.95;;;;;;;;;;5138112;27;20304;-68
2022/10/22 12:45:16;;;;;;;1.23;0.80;;;;;;;;;;5137224;27;20206;-68
2022/10/22 12:47:46;;;;;;;1.10;0.90;;;;;;;;;;5137004;27;20223;-68
2022/10/22 12:50:18;;;;;;;0.80;0.80;;;;;;;;;;5137227;27;20213;-68
2022/10/22 12:52:46;;;;;;;2.67;0.80;;;;;;;;;;5137935;27;20290;-68
2022/10/22 12:55:20;;;;;;;1.75;0.80;;;;;;;;;;5128260;27;20198;-68
2022/10/22 12:57:48;;;;;;;2.05;1.40;;;;;;;;;;5136931;27;20544;-68
2022/10/22 13:00:23;;;;;;;2.30;1.30;;;;;;;;;;5136793;27;20209;-68
2022/10/22 13:02:51;;;;;;;2.63;1.20;;;;;;;;;;5136954;27;20300;-69
2022/10/22 13:05:22;;;;;;;4.13;1.75;;;;;;;;;;5137100;27;20606;-68
2022/10/22 13:07:51;;;;;;;4.38;1.75;;;;;;;;;;5136955;27;20328;-68
2022/10/22 13:10:23;;;;;;;2.75;1.30;;;;;;;;;;5136942;27;20613;-68
2022/10/22 13:12:52;;;;;;;3.85;1.70;;;;;;;;;;5137454;27;20248;-69
2022/10/22 13:15:21;;;;;;;5.45;2.25;;;;;;;;;;5135385;27;20206;-68
2022/10/22 13:17:49;;;;;;;3.38;1.65;;;;;;;;;;5137107;27;20199;-68
2022/10/22 13:20:17;;;;;;;3.47;1.48;;;;;;;;;;5135649;27;20221;-68
2022/10/22 13:22:54;;;;;;;4.53;1.60;;;;;;;;;;5136500;27;20206;-68
2022/10/22 13:25:25;;;;;;;2.85;1.60;;;;;;;;;;5136704;27;20206;-69
2022/10/22 13:27:54;;;;;;;3.17;1.95;;;;;;;;;;5128505;27;20760;-68
2022/10/22 13:30:23;;;;;;;2.38;1.48;;;;;;;;;;5122946;27;20294;-68
2022/10/22 13:32:52;;;;;;;4.38;1.85;;;;;;;;;;5124172;27;20187;-68
2022/10/22 13:35:21;;;;;;;3.15;1.98;;;;;;;;;;5131727;27;20302;-67
2022/10/22 13:37:49;;;;;;;4.30;1.77;;;;;;;;;;5115318;28;20287;-67
2022/10/22 13:40:17;;;;;;;6.75;2.42;;;;;;;;;;5094293;28;20664;-67
2022/10/22 13:42:46;;;;;;;4.60;2.10;;;;;;;;;;5113317;28;20210;-68
2022/10/22 13:45:14;;;;;;;3.97;2.05;;;;;;;;;;5114979;28;20231;-67
2022/10/22 13:47:43;;;;;;;4.85;2.15;;;;;;;;;;5113375;27;20244;-68
2022/10/22 13:50:13;;;;;;;4.55;1.70;;;;;;;;;;5126808;27;20206;-67
2022/10/22 13:52:41;;;;;;;4.25;2.03;;;;;;;;;;5115294;28;20298;-68
2022/10/22 13:55:16;;;;;;;5.55;2.35;;;;;;;;;;5111151;27;20226;-67
2022/10/22 13:57:46;;;;;;;4.63;2.25;;;;;;;;;;5115655;28;20211;-68
2022/10/22 14:00:14;;;;;;;3.85;2.40;;;;;;;;;;5114909;28;20275;-67
2022/10/22 14:02:42;;;;;;;4.63;2.22;;;;;;;;;;5114160;28;20195;-68
2022/10/22 14:05:11;;;;;;;3.28;2.40;;;;;;;;;;5115681;28;20195;-67
2022/10/22 14:07:39;;;;;;;4.05;2.30;;;;;;;;;;5117248;27;20222;-67
2022/10/22 14:10:14;;;;;;;5.25;2.33;;;;;;;;;;5135074;27;20243;-67
2022/10/22 14:12:41;;;;;;;4.63;2.67;;;;;;;;;;5135148;27;20261;-68
2022/10/22 14:15:12;;;;;;;4.53;2.58;;;;;;;;;;5123506;27;20203;-67
2022/10/22 14:17:41;;;;;;;4.30;2.47;;;;;;;;;;5130845;27;20650;-67
2022/10/22 14:20:14;;;;;;;3.40;2.20;;;;;;;;;;5135006;27;20202;-67
2022/10/22 14:22:41;;;;;;;5.05;2.58;;;;;;;;;;5136321;27;20305;-67
2022/10/22 14:25:11;;;;;;;4.63;2.55;;;;;;;;;;5136381;27;20597;-67
2022/10/22 14:27:38;;;;;;;3.67;2.15;;;;;;;;;;5110317;28;20227;-66
2022/10/22 14:30:06;;;;;;;5.57;2.78;;;;;;;;;;5116047;28;20246;-67
2022/10/22 14:32:35;;;;;;;4.18;2.25;;;;;;;;;;5114985;28;20263;-68
2022/10/22 14:35:03;;;;;;;4.88;2.20;;;;;;;;;;5115265;28;20269;-68
2022/10/22 14:37:30;;;;;;;4.72;2.15;;;;;;;;;;5114734;28;20237;-67
2022/10/22 14:40:01;;;;;;;4.68;2.30;;;;;;;;;;5114981;28;20680;-68
2022/10/22 14:42:29;;;;;;;5.43;2.58;;;;;;;;;;5113997;28;20195;-67
2022/10/22 14:44:56;;;;;;;3.53;2.38;;;;;;;;;;5113933;28;20207;-67
2022/10/22 14:47:24;;;;;;;3.55;2.50;;;;;;;;;;5113717;28;20307;-67
2022/10/22 14:49:53;;;;;;;4.90;2.60;;;;;;;;;;5113591;28;20284;-67
2022/10/22 14:52:20;;;;;;;3.90;2.47;;;;;;;;;;5113644;28;20249;-67
2022/10/22 14:54:48;;;;;;;3.72;2.60;;;;;;;;;;5114742;28;20195;-67
2022/10/22 14:57:16;;;;;;;5.22;2.33;;;;;;;;;;5114295;28;20213;-67